Time;durP1;ratioP1;P1;durP2;ratioP2;P2;SDS_P1;SDS_P2;PMS_P1;PMS_P2;Temp;Humidity;BMP_temperature;BMP_pressure;BME280_temperature;BME280_humidity;BME280_pressure;Samples;Min_cycle;Max_cycle;Signal;HPM_P1;HPM_P2
2022/02/13 00:00:37;;;;;;;;;;;3.60;99.90;;;;;;5033911;28;19905;-64
2022/02/13 00:03:03;;;;;;;;;;;3.60;99.90;;;;;;5034427;28;19913;-63
2022/02/13 00:05:30;;;;;;;;;;;3.60;99.90;;;;;;5033594;28;19972;-70
2022/02/13 00:07:55;;;;;;;;;;;3.70;99.90;;;;;;5016647;28;19916;-62
2022/02/13 00:10:21;;;;;;;;;;;3.40;99.90;;;;;;5034585;28;19905;-63
2022/02/13 00:12:46;;;;;;;;;;;3.30;99.90;;;;;;5033740;28;19917;-63
2022/02/13 00:15:12;;;;;;;;;;;3.40;99.90;;;;;;5036719;28;20284;-63
2022/02/13 00:17:37;;;;;;;;;;;3.50;99.90;;;;;;5019263;28;19904;-64
2022/02/13 00:20:05;;;;;;;;;;;3.30;99.90;;;;;;5036532;28;19905;-63
2022/02/13 00:22:30;;;;;;;;;;;3.20;99.90;;;;;;5033474;28;19992;-65
2022/02/13 00:24:56;;;;;;;;;;;3.30;99.90;;;;;;5016245;28;19940;-62
2022/02/13 00:27:21;;;;;;;;;;;3.30;99.90;;;;;;5033657;28;20340;-62
2022/02/13 00:29:47;;;;;;;;;;;3.00;99.90;;;;;;5033104;28;19951;-63
2022/02/13 00:32:12;;;;;;;;;;;3.10;99.90;;;;;;5033926;28;19905;-62
2022/02/13 00:34:38;;;;;;;;;;;2.90;99.90;;;;;;5033219;28;20251;-62
2022/02/13 00:37:06;;;;;;;;;;;3.00;99.90;;;;;;5033856;28;20410;-60
2022/02/13 00:39:31;;;;;;;;;;;3.10;99.90;;;;;;5033413;28;19944;-63
2022/02/13 00:41:57;;;;;;;;;;;2.80;99.90;;;;;;5033524;28;19909;-61
2022/02/13 00:44:22;;;;;;;;;;;2.70;99.90;;;;;;5033276;28;20290;-61
2022/02/13 00:46:48;;;;;;;;;;;2.80;99.90;;;;;;5014901;28;19905;-61
2022/02/13 00:49:14;;;;;;;;;;;2.80;99.90;;;;;;5033451;28;20089;-62
2022/02/13 00:51:39;;;;;;;;;;;2.60;99.90;;;;;;5033067;28;19995;-62
2022/02/13 00:54:05;;;;;;;;;;;2.60;99.90;;;;;;5017148;28;19956;-62
2022/02/13 00:56:31;;;;;;;;;;;2.50;99.90;;;;;;5037457;28;20365;-61
2022/02/13 00:58:57;;;;;;;;;;;2.50;99.90;;;;;;5019691;28;20019;-63
2022/02/13 01:01:22;;;;;;;;;;;2.50;99.90;;;;;;5037952;28;19944;-62
2022/02/13 01:03:48;;;;;;;;;;;2.50;99.90;;;;;;5036906;28;19933;-61
2022/02/13 01:06:13;;;;;;;;;;;2.60;99.90;;;;;;5037486;28;19905;-65
2022/02/13 01:08:39;;;;;;;;;;;2.60;99.90;;;;;;5020937;28;19912;-63
2022/02/13 01:11:05;;;;;;;;;;;2.50;99.90;;;;;;5019919;28;19916;-62
2022/02/13 01:13:30;;;;;;;;;;;2.60;99.90;;;;;;5019580;28;19916;-62
2022/02/13 01:15:56;;;;;;;;;;;2.60;99.90;;;;;;5037185;28;19962;-62
2022/02/13 01:18:22;;;;;;;;;;;2.60;99.90;;;;;;5020690;28;20342;-61
2022/02/13 01:20:47;;;;;;;;;;;2.60;99.90;;;;;;5037521;28;20363;-62
2022/02/13 01:23:13;;;;;;;;;;;2.50;99.90;;;;;;5038723;28;19911;-61
2022/02/13 01:25:38;;;;;;;;;;;2.50;99.90;;;;;;5018783;28;19905;-61
2022/02/13 01:28:04;;;;;;;;;;;2.60;99.90;;;;;;5036892;28;19931;-62
2022/02/13 01:30:30;;;;;;;;;;;2.70;99.90;;;;;;5019173;28;19995;-62
2022/02/13 01:32:55;;;;;;;;;;;2.70;99.90;;;;;;5036576;28;20303;-62
2022/02/13 01:35:21;;;;;;;;;;;2.70;99.90;;;;;;5036783;28;20324;-62
2022/02/13 01:37:46;;;;;;;;;;;2.60;99.90;;;;;;5037093;28;19911;-69
2022/02/13 01:40:12;;;;;;;;;;;2.60;99.90;;;;;;5021251;28;19905;-63
2022/02/13 01:42:38;;;;;;;;;;;2.50;99.90;;;;;;5021164;28;19971;-62
2022/02/13 01:45:05;;;;;;;;;;;2.50;99.90;;;;;;5037995;28;20381;-73
2022/02/13 01:47:33;;;;;;;;;;;2.60;99.90;;;;;;5037605;28;19905;-62
2022/02/13 01:50:00;;;;;;;;;;;2.40;99.90;;;;;;5018503;28;19996;-62
2022/02/13 01:52:26;;;;;;;;;;;2.50;99.90;;;;;;5036395;28;19909;-63
2022/02/13 01:54:52;;;;;;;;;;;2.40;99.90;;;;;;5036107;28;19920;-62
2022/02/13 01:57:17;;;;;;;;;;;2.40;99.90;;;;;;5018673;28;19987;-62
2022/02/13 01:59:43;;;;;;;;;;;2.30;99.90;;;;;;5018162;28;19908;-63
2022/02/13 02:02:08;;;;;;;;;;;2.50;99.90;;;;;;5036451;28;19912;-65
2022/02/13 02:04:34;;;;;;;;;;;2.30;99.90;;;;;;5002313;28;19909;-62
2022/02/13 02:07:01;;;;;;;;;;;2.40;99.90;;;;;;5035054;28;19971;-62
2022/02/13 02:09:26;;;;;;;;;;;2.30;99.90;;;;;;5037287;28;19927;-62
2022/02/13 02:11:52;;;;;;;;;;;2.30;99.90;;;;;;5035898;28;20337;-62
2022/02/13 02:14:18;;;;;;;;;;;2.20;99.90;;;;;;5038211;28;19944;-67
2022/02/13 02:16:44;;;;;;;;;;;2.20;99.90;;;;;;5037318;28;19905;-62
2022/02/13 02:19:10;;;;;;;;;;;2.30;99.90;;;;;;5036661;28;19912;-63
2022/02/13 02:21:42;;;;;;;;;;;2.20;99.90;;;;;;5019213;28;19905;-62
2022/02/13 02:24:12;;;;;;;;;;;2.20;99.90;;;;;;5018819;28;20368;-62
2022/02/13 02:26:37;;;;;;;;;;;2.10;99.90;;;;;;5018059;28;19905;-65
2022/02/13 02:29:03;;;;;;;;;;;2.20;99.90;;;;;;5035893;28;19912;-62
2022/02/13 02:31:28;;;;;;;;;;;2.10;99.90;;;;;;5017899;28;19905;-62
2022/02/13 02:33:54;;;;;;;;;;;2.10;99.90;;;;;;5017677;28;19917;-61
2022/02/13 02:36:19;;;;;;;;;;;2.10;99.90;;;;;;5036426;28;20350;-62
2022/02/13 02:38:45;;;;;;;;;;;2.10;99.90;;;;;;5017430;28;19905;-63
2022/02/13 02:41:11;;;;;;;;;;;2.10;99.90;;;;;;5035193;28;19960;-63
2022/02/13 02:43:37;;;;;;;;;;;2.10;99.90;;;;;;5017198;28;20358;-62
2022/02/13 02:46:02;;;;;;;;;;;2.00;99.90;;;;;;5017203;28;19921;-62
2022/02/13 02:48:28;;;;;;;;;;;2.00;99.90;;;;;;5035813;28;19905;-62
2022/02/13 02:50:53;;;;;;;;;;;2.00;99.90;;;;;;5035121;28;19909;-62
2022/02/13 02:53:19;;;;;;;;;;;1.90;99.90;;;;;;5017466;28;19917;-63
2022/02/13 02:55:44;;;;;;;;;;;1.80;99.90;;;;;;5035188;28;19909;-63
2022/02/13 02:58:10;;;;;;;;;;;1.80;99.90;;;;;;5035169;28;19905;-64
2022/02/13 03:00:35;;;;;;;;;;;1.80;99.90;;;;;;5035295;28;19905;-63
2022/02/13 03:03:01;;;;;;;;;;;1.80;99.90;;;;;;5034691;28;19905;-64
2022/02/13 03:05:27;;;;;;;;;;;1.70;99.90;;;;;;5035091;28;19905;-61
2022/02/13 03:07:52;;;;;;;;;;;1.70;99.90;;;;;;5035190;28;20317;-62
2022/02/13 03:10:18;;;;;;;;;;;1.70;99.90;;;;;;5037810;28;19999;-63
2022/02/13 03:12:43;;;;;;;;;;;1.70;99.90;;;;;;5018496;28;20350;-65
2022/02/13 03:15:09;;;;;;;;;;;1.80;99.90;;;;;;5037078;28;19917;-63
2022/02/13 03:17:34;;;;;;;;;;;1.90;99.90;;;;;;5035045;28;19955;-63
2022/02/13 03:20:01;;;;;;;;;;;1.90;99.90;;;;;;5035669;28;20346;-63
2022/02/13 03:22:26;;;;;;;;;;;2.00;99.90;;;;;;5018829;28;19944;-67
2022/02/13 03:24:58;;;;;;;;;;;1.80;99.90;;;;;;5036166;28;20381;-65
2022/02/13 03:27:24;;;;;;;;;;;1.80;99.90;;;;;;5036602;28;19905;-62
2022/02/13 03:29:50;;;;;;;;;;;1.80;99.90;;;;;;5034070;28;19912;-62
2022/02/13 03:32:15;;;;;;;;;;;1.80;99.90;;;;;;5034594;28;19905;-62
2022/02/13 03:34:41;;;;;;;;;;;1.70;99.90;;;;;;5034465;28;20007;-72
2022/02/13 03:37:06;;;;;;;;;;;1.80;99.90;;;;;;5035295;28;19955;-62
2022/02/13 03:39:32;;;;;;;;;;;2.00;99.90;;;;;;5017185;28;19912;-62
2022/02/13 03:41:57;;;;;;;;;;;2.00;99.90;;;;;;5016673;28;19909;-63
2022/02/13 03:44:23;;;;;;;;;;;2.10;99.90;;;;;;5020008;28;20269;-66
2022/02/13 03:46:50;;;;;;;;;;;2.00;99.90;;;;;;5018858;28;19905;-66
2022/02/13 03:49:16;;;;;;;;;;;1.90;99.90;;;;;;5035332;28;19905;-62
2022/02/13 03:51:42;;;;;;;;;;;1.90;99.90;;;;;;5034491;28;19909;-70
2022/02/13 03:54:07;;;;;;;;;;;1.80;99.90;;;;;;5034509;28;19982;-62
2022/02/13 03:56:33;;;;;;;;;;;1.90;99.90;;;;;;5034731;28;19913;-64
2022/02/13 03:58:58;;;;;;;;;;;1.80;99.90;;;;;;5033285;28;20010;-64
2022/02/13 04:01:24;;;;;;;;;;;1.90;99.90;;;;;;5033898;28;20416;-64
2022/02/13 04:03:49;;;;;;;;;;;1.80;99.90;;;;;;5017056;28;19991;-62
2022/02/13 04:06:15;;;;;;;;;;;1.90;99.90;;;;;;5017980;28;19965;-63
2022/02/13 04:08:40;;;;;;;;;;;1.90;99.90;;;;;;5035443;28;20331;-67
2022/02/13 04:11:06;;;;;;;;;;;1.80;99.90;;;;;;5034421;28;19905;-63
2022/02/13 04:13:31;;;;;;;;;;;1.70;99.90;;;;;;5017122;28;19979;-63
2022/02/13 04:15:57;;;;;;;;;;;1.70;99.90;;;;;;5015958;28;19909;-62
2022/02/13 04:18:23;;;;;;;;;;;1.70;99.90;;;;;;5016575;28;19905;-62
2022/02/13 04:20:48;;;;;;;;;;;1.60;99.90;;;;;;5033138;28;20379;-63
2022/02/13 04:23:14;;;;;;;;;;;1.60;99.90;;;;;;5016508;28;19955;-63
2022/02/13 04:25:40;;;;;;;;;;;1.80;99.90;;;;;;5017778;28;19972;-66
2022/02/13 04:28:05;;;;;;;;;;;1.70;99.90;;;;;;5034686;28;19928;-62
2022/02/13 04:30:31;;;;;;;;;;;1.70;99.90;;;;;;5035384;28;19905;-63
2022/02/13 04:32:57;;;;;;;;;;;1.70;99.90;;;;;;5034795;28;19912;-68
2022/02/13 04:35:23;;;;;;;;;;;1.70;99.90;;;;;;5035716;28;19920;-63
2022/02/13 04:37:49;;;;;;;;;;;1.70;99.90;;;;;;5033041;28;19955;-62
2022/02/13 04:40:15;;;;;;;;;;;1.70;99.90;;;;;;5016041;28;19909;-63
2022/02/13 04:42:40;;;;;;;;;;;1.70;99.90;;;;;;5033141;28;19913;-63
2022/02/13 04:45:06;;;;;;;;;;;1.70;99.90;;;;;;5032593;28;19916;-63
2022/02/13 04:47:31;;;;;;;;;;;1.70;99.90;;;;;;5033476;28;19905;-63
2022/02/13 04:49:57;;;;;;;;;;;1.50;99.90;;;;;;5032564;28;20281;-62
2022/02/13 04:52:22;;;;;;;;;;;1.50;99.90;;;;;;5015661;28;19909;-62
2022/02/13 04:54:48;;;;;;;;;;;1.50;99.90;;;;;;5015129;28;19966;-62
2022/02/13 04:57:14;;;;;;;;;;;1.50;99.90;;;;;;5016071;28;19999;-61
2022/02/13 04:59:40;;;;;;;;;;;1.40;99.90;;;;;;5016057;28;19905;-62
2022/02/13 05:02:06;;;;;;;;;;;1.50;99.90;;;;;;5017844;28;20342;-64
2022/02/13 05:04:32;;;;;;;;;;;1.40;99.90;;;;;;5015621;28;19905;-61
2022/02/13 05:06:58;;;;;;;;;;;1.40;99.90;;;;;;4998730;28;20008;-63
2022/02/13 05:09:23;;;;;;;;;;;1.40;99.90;;;;;;5032950;28;19967;-62
2022/02/13 05:11:49;;;;;;;;;;;1.50;99.90;;;;;;5032560;28;19975;-62
2022/02/13 05:14:14;;;;;;;;;;;1.60;99.90;;;;;;5032905;28;19925;-63
2022/02/13 05:16:40;;;;;;;;;;;1.60;99.90;;;;;;5015423;28;19905;-63
2022/02/13 05:19:05;;;;;;;;;;;1.70;99.90;;;;;;5015034;28;19905;-62
2022/02/13 05:21:31;;;;;;;;;;;1.60;99.90;;;;;;5015834;28;19911;-62
2022/02/13 05:23:56;;;;;;;;;;;1.50;99.90;;;;;;5033101;28;20306;-62
2022/02/13 05:26:22;;;;;;;;;;;1.50;99.90;;;;;;5033077;28;19951;-62
2022/02/13 05:28:48;;;;;;;;;;;1.50;99.90;;;;;;5033284;28;19937;-71
2022/02/13 05:31:13;;;;;;;;;;;1.50;99.90;;;;;;5034827;28;20357;-64
2022/02/13 05:33:39;;;;;;;;;;;1.60;99.90;;;;;;5035998;28;19971;-62
2022/02/13 05:36:04;;;;;;;;;;;1.60;99.90;;;;;;5033228;28;19980;-62
2022/02/13 05:38:30;;;;;;;;;;;1.50;99.90;;;;;;5033596;28;19909;-63
2022/02/13 05:40:55;;;;;;;;;;;1.70;99.90;;;;;;5017735;28;19905;-71
2022/02/13 05:43:21;;;;;;;;;;;1.70;99.90;;;;;;5019410;28;19909;-63
2022/02/13 05:45:46;;;;;;;;;;;1.60;99.90;;;;;;5020039;28;19916;-63
2022/02/13 05:48:13;;;;;;;;;;;1.60;99.90;;;;;;5036899;28;19959;-63
2022/02/13 05:50:38;;;;;;;;;;;1.60;99.90;;;;;;5036670;28;19909;-63
2022/02/13 05:53:04;;;;;;;;;;;1.50;99.90;;;;;;5017931;28;20325;-62
2022/02/13 05:55:30;;;;;;;;;;;1.50;99.90;;;;;;5036491;28;19905;-62
2022/02/13 05:57:56;;;;;;;;;;;1.60;99.90;;;;;;5018176;28;19905;-62
2022/02/13 06:00:21;;;;;;;;;;;1.60;99.90;;;;;;5036159;28;20286;-62
2022/02/13 06:02:47;;;;;;;;;;;1.60;99.90;;;;;;5036326;28;19905;-62
2022/02/13 06:05:12;;;;;;;;;;;1.60;99.90;;;;;;5035948;28;19905;-61
2022/02/13 06:07:38;;;;;;;;;;;1.60;99.90;;;;;;5036275;28;20364;-61
2022/02/13 06:10:05;;;;;;;;;;;1.70;99.90;;;;;;5035852;28;19912;-61
2022/02/13 06:12:31;;;;;;;;;;;1.50;99.90;;;;;;5035799;28;19917;-61
2022/02/13 06:14:56;;;;;;;;;;;1.60;99.90;;;;;;5017831;28;19963;-62
2022/02/13 06:17:22;;;;;;;;;;;1.50;99.90;;;;;;5035826;28;19905;-61
2022/02/13 06:19:47;;;;;;;;;;;1.60;99.90;;;;;;5018689;28;19971;-61
2022/02/13 06:22:13;;;;;;;;;;;1.60;99.90;;;;;;5036193;28;19905;-62
2022/02/13 06:24:38;;;;;;;;;;;1.50;99.90;;;;;;5036018;28;19905;-62
2022/02/13 06:27:04;;;;;;;;;;;1.50;99.90;;;;;;5035814;28;19905;-61
2022/02/13 06:29:29;;;;;;;;;;;1.60;99.90;;;;;;5018221;28;19905;-61
2022/02/13 06:31:57;;;;;;;;;;;1.60;99.90;;;;;;5035766;28;19905;-61
2022/02/13 06:34:22;;;;;;;;;;;1.60;99.90;;;;;;5036911;28;20275;-61
2022/02/13 06:36:48;;;;;;;;;;;1.60;99.90;;;;;;5036364;28;19927;-62
2022/02/13 06:39:13;;;;;;;;;;;1.60;99.90;;;;;;5036309;28;19911;-62
2022/02/13 06:41:39;;;;;;;;;;;1.60;99.90;;;;;;5036554;28;19905;-67
2022/02/13 06:44:04;;;;;;;;;;;1.60;99.90;;;;;;5037298;28;20369;-61
2022/02/13 06:46:30;;;;;;;;;;;1.50;99.90;;;;;;5019357;28;20334;-61
2022/02/13 06:48:55;;;;;;;;;;;1.50;99.90;;;;;;5035051;28;20380;-62
2022/02/13 06:51:21;;;;;;;;;;;1.50;99.90;;;;;;5034685;28;19911;-61
2022/02/13 06:53:46;;;;;;;;;;;1.40;99.90;;;;;;5035355;28;20012;-62
2022/02/13 06:56:13;;;;;;;;;;;1.40;99.90;;;;;;5017267;28;20080;-62
2022/02/13 06:58:39;;;;;;;;;;;1.60;99.90;;;;;;5018656;28;20349;-62
2022/02/13 07:01:04;;;;;;;;;;;1.60;99.90;;;;;;5017141;28;19916;-63
2022/02/13 07:03:30;;;;;;;;;;;1.40;99.90;;;;;;5035659;28;19905;-62
2022/02/13 07:05:56;;;;;;;;;;;1.30;99.90;;;;;;5034778;28;19905;-62
2022/02/13 07:08:21;;;;;;;;;;;1.50;99.90;;;;;;5017197;28;19905;-63
2022/02/13 07:10:47;;;;;;;;;;;1.70;99.90;;;;;;5035160;28;20020;-62
2022/02/13 07:13:12;;;;;;;;;;;1.90;99.90;;;;;;5016245;28;20385;-62
2022/02/13 07:15:38;;;;;;;;;;;2.20;99.90;;;;;;5017391;28;19940;-62
2022/02/13 07:18:04;;;;;;;;;;;2.20;99.90;;;;;;5034185;28;19960;-63
2022/02/13 07:20:29;;;;;;;;;;;2.40;99.90;;;;;;5034617;28;20422;-62
2022/02/13 07:22:56;;;;;;;;;;;2.50;99.90;;;;;;5034558;28;19916;-72
2022/02/13 07:25:22;;;;;;;;;;;2.70;99.90;;;;;;5017028;28;19912;-61
2022/02/13 07:27:48;;;;;;;;;;;2.60;99.90;;;;;;5034835;28;19905;-62
2022/02/13 07:30:13;;;;;;;;;;;2.70;99.90;;;;;;5016507;28;19927;-62
2022/02/13 07:32:42;;;;;;;;;;;2.90;99.90;;;;;;5034807;28;20290;-62
2022/02/13 07:35:08;;;;;;;;;;;2.80;99.90;;;;;;5016289;28;19948;-61
2022/02/13 07:37:34;;;;;;;;;;;3.10;99.90;;;;;;5016750;28;19917;-61
2022/02/13 07:40:00;;;;;;;;;;;3.40;99.90;;;;;;5034114;28;19905;-62
2022/02/13 07:42:25;;;;;;;;;;;3.60;99.90;;;;;;5016486;28;20250;-62
2022/02/13 07:44:51;;;;;;;;;;;3.40;99.90;;;;;;5033992;28;20266;-65
2022/02/13 07:47:17;;;;;;;;;;;3.30;99.90;;;;;;5033478;28;19909;-61
2022/02/13 07:49:42;;;;;;;;;;;3.20;99.90;;;;;;5034562;28;19905;-63
2022/02/13 07:52:08;;;;;;;;;;;3.30;99.90;;;;;;5033708;28;19975;-63
2022/02/13 07:54:34;;;;;;;;;;;3.60;99.90;;;;;;5033799;28;19960;-62
2022/02/13 07:56:59;;;;;;;;;;;4.10;99.90;;;;;;5015969;28;19909;-61
2022/02/13 07:59:25;;;;;;;;;;;3.90;99.90;;;;;;5016657;28;19964;-62
2022/02/13 08:01:50;;;;;;;;;;;4.00;99.90;;;;;;5033844;28;19912;-62
2022/02/13 08:04:16;;;;;;;;;;;4.40;99.90;;;;;;5015190;28;20174;-61
2022/02/13 08:06:41;;;;;;;;;;;4.50;99.90;;;;;;5041604;28;19912;-63
2022/02/13 08:09:07;;;;;;;;;;;4.60;99.90;;;;;;5035405;28;19912;-62
2022/02/13 08:11:32;;;;;;;;;;;5.10;99.90;;;;;;5034024;28;20011;-63
2022/02/13 08:13:59;;;;;;;;;;;5.30;99.90;;;;;;5044899;28;19943;-73
2022/02/13 08:16:24;;;;;;;;;;;5.20;99.90;;;;;;5033416;28;19962;-62
2022/02/13 08:18:50;;;;;;;;;;;5.40;99.90;;;;;;5026413;28;20006;-58
2022/02/13 08:21:15;;;;;;;;;;;7.00;99.90;;;;;;5035980;28;19905;-62
2022/02/13 08:23:41;;;;;;;;;;;8.10;99.90;;;;;;5045437;28;19909;-65
2022/02/13 08:26:07;;;;;;;;;;;7.00;99.90;;;;;;5047699;28;19909;-63
2022/02/13 08:28:34;;;;;;;;;;;6.40;99.90;;;;;;5048710;28;20329;-64
2022/02/13 08:31:00;;;;;;;;;;;6.30;99.90;;;;;;5048307;28;19908;-63
2022/02/13 08:33:26;;;;;;;;;;;6.30;99.90;;;;;;5041796;28;19913;-62
2022/02/13 08:35:51;;;;;;;;;;;6.20;99.90;;;;;;5052889;28;19908;-62
2022/02/13 08:38:17;;;;;;;;;;;6.20;99.90;;;;;;5043859;28;19909;-62
2022/02/13 08:40:43;;;;;;;;;;;5.60;99.90;;;;;;5053568;28;19971;-62
2022/02/13 08:43:08;;;;;;;;;;;5.70;99.90;;;;;;5036505;28;19909;-64
2022/02/13 08:45:35;;;;;;;;;;;6.20;99.90;;;;;;5033350;28;19916;-62
2022/02/13 08:48:00;;;;;;;;;;;6.40;99.90;;;;;;5047489;28;20361;-66
2022/02/13 08:50:26;;;;;;;;;;;6.20;99.90;;;;;;5016297;28;19917;-63
2022/02/13 08:52:52;;;;;;;;;;;6.90;99.90;;;;;;5024480;28;19905;-62
2022/02/13 08:55:18;;;;;;;;;;;6.90;99.90;;;;;;5052678;28;19912;-63
2022/02/13 08:57:44;;;;;;;;;;;7.30;99.90;;;;;;4997905;28;20369;-63
2022/02/13 09:00:11;;;;;;;;;;;7.80;99.50;;;;;;5033159;28;19905;-64
2022/02/13 09:02:37;;;;;;;;;;;7.70;99.40;;;;;;5026065;28;19909;-71
2022/02/13 09:05:04;;;;;;;;;;;7.10;99.90;;;;;;5045580;28;19999;-64
2022/02/13 09:07:30;;;;;;;;;;;7.20;99.90;;;;;;5049712;28;19952;-63
2022/02/13 09:09:56;;;;;;;;;;;8.00;99.30;;;;;;5024913;28;19915;-62
2022/02/13 09:12:22;;;;;;;;;;;7.90;99.50;;;;;;5046759;28;20281;-62
2022/02/13 09:14:47;;;;;;;;;;;8.00;98.80;;;;;;5040241;28;19929;-65
2022/02/13 09:17:13;;;;;;;;;;;8.10;98.50;;;;;;5037755;28;19908;-64
2022/02/13 09:19:39;;;;;;;;;;;8.30;98.10;;;;;;5034005;28;19915;-63
2022/02/13 09:22:04;;;;;;;;;;;8.10;98.10;;;;;;5053374;28;19958;-66
2022/02/13 09:24:30;;;;;;;;;;;8.20;98.20;;;;;;5030965;28;19909;-64
2022/02/13 09:26:56;;;;;;;;;;;8.40;97.20;;;;;;5049341;28;19920;-66
2022/02/13 09:29:21;;;;;;;;;;;8.90;98.00;;;;;;5047468;28;19909;-65
2022/02/13 09:31:47;;;;;;;;;;;9.30;96.50;;;;;;5042621;28;19948;-62
2022/02/13 09:34:15;;;;;;;;;;;9.30;95.80;;;;;;5022877;28;19913;-65
2022/02/13 09:36:40;;;;;;;;;;;9.20;96.20;;;;;;5056806;28;20007;-63
2022/02/13 09:39:06;;;;;;;;;;;9.40;96.30;;;;;;5030426;28;19955;-64
2022/02/13 09:41:32;;;;;;;;;;;;;;;;;;5042058;28;19915;-63
2022/02/13 09:43:57;;;;;;;;;;;9.90;94.30;;;;;;5052225;28;19909;-66
2022/02/13 09:46:24;;;;;;;;;;;9.50;95.10;;;;;;5056699;28;20251;-62
2022/02/13 09:48:51;;;;;;;;;;;9.00;95.20;;;;;;5037937;28;19904;-62
2022/02/13 09:51:16;;;;;;;;;;;9.40;95.60;;;;;;5030959;28;19909;-63
2022/02/13 09:53:42;;;;;;;;;;;9.40;95.50;;;;;;5046522;28;20385;-63
2022/02/13 09:56:08;;;;;;;;;;;10.20;95.30;;;;;;5021535;28;19920;-62
2022/02/13 09:58:34;;;;;;;;;;;10.00;94.40;;;;;;5031564;28;19912;-65
2022/02/13 10:01:04;;;;;;;;;;;9.80;94.90;;;;;;5042038;28;19913;-63
2022/02/13 10:03:29;;;;;;;;;;;9.60;95.40;;;;;;5048238;28;19958;-64
2022/02/13 10:05:56;;;;;;;;;;;9.60;95.10;;;;;;5049738;28;19995;-64
2022/02/13 10:08:28;;;;;;;;;;;9.80;95.10;;;;;;5031054;28;19905;-64
2022/02/13 10:11:13;;;;;;;;;;;10.10;94.80;;;;;;5051487;28;19916;-68
2022/02/13 10:13:41;;;;;;;;;;;10.20;95.20;;;;;;5038616;28;20015;-64
2022/02/13 10:16:14;;;;;;;;;;;10.30;94.70;;;;;;5032621;28;19968;-67
2022/02/13 10:18:47;;;;;;;;;;;10.50;94.30;;;;;;5032985;28;19984;-67
2022/02/13 10:21:12;;;;;;;;;;;10.60;93.80;;;;;;5049030;28;19995;-74
2022/02/13 10:23:38;;;;;;;;;;;10.60;94.10;;;;;;5035875;28;19982;-64
2022/02/13 10:26:17;;;;;;;;;;;10.40;93.90;;;;;;5036658;28;19909;-65
2022/02/13 10:28:52;;;;;;;;;;;10.50;94.60;;;;;;5031272;28;19925;-66
2022/02/13 10:31:20;;;;;;;;;;;11.20;93.30;;;;;;5028871;28;19905;-64
2022/02/13 10:33:55;;;;;;;;;;;11.80;92.10;;;;;;5037702;28;19913;-64
2022/02/13 10:36:21;;;;;;;;;;;11.70;94.60;;;;;;5018975;28;19916;-67
2022/02/13 10:38:47;;;;;;;;;;;12.20;94.00;;;;;;5052113;28;20326;-67
2022/02/13 10:41:13;;;;;;;;;;;;;;;;;;5060328;28;19978;-67
2022/02/13 10:44:17;;;;;;;;;;;14.00;98.00;;;;;;5067994;28;20357;-65
2022/02/13 10:46:44;;;;;;;;;;;13.60;90.80;;;;;;4984812;28;20318;-63
2022/02/13 10:49:11;;;;;;;;;;;13.10;89.70;;;;;;4977749;28;19945;-68
2022/02/13 10:51:37;;;;;;;;;;;12.70;89.50;;;;;;4973427;28;19949;-65
2022/02/13 10:54:04;;;;;;;;;;;13.30;90.50;;;;;;4978739;28;19967;-65
2022/02/13 10:56:30;;;;;;;;;;;13.00;87.10;;;;;;4973619;28;19930;-63
2022/02/13 10:58:55;;;;;;;;;;;12.90;88.00;;;;;;4939441;29;19928;-63
2022/02/13 11:01:22;;;;;;;;;;;13.30;88.00;;;;;;4938730;29;19938;-65
2022/02/13 11:03:48;;;;;;;;;;;13.20;86.50;;;;;;4976103;28;19914;-64
2022/02/13 11:06:14;;;;;;;;;;;13.30;86.70;;;;;;4948882;28;19914;-66
2022/02/13 11:08:42;;;;;;;;;;;12.90;87.80;;;;;;4940989;29;20264;-65
2022/02/13 11:11:10;;;;;;;;;;;12.90;87.20;;;;;;4955569;29;19957;-69
2022/02/13 11:13:36;;;;;;;;;;;13.10;87.20;;;;;;4939161;29;20081;-64
2022/02/13 11:16:01;;;;;;;;;;;13.30;86.30;;;;;;4962166;28;20009;-65
2022/02/13 11:18:31;;;;;;;;;;;13.50;85.90;;;;;;5037416;28;19909;-65
2022/02/13 11:20:57;;;;;;;;;;;13.50;85.60;;;;;;5028390;28;19911;-68
2022/02/13 11:23:24;;;;;;;;;;;13.30;86.30;;;;;;5056674;28;20210;-63
2022/02/13 11:25:59;;;;;;;;;;;13.50;86.00;;;;;;5044722;28;19924;-63
2022/02/13 11:28:40;;;;;;;;;;;13.50;87.40;;;;;;5032863;28;19958;-64
2022/02/13 11:31:06;;;;;;;;;;;13.60;85.70;;;;;;5040164;28;19913;-64
2022/02/13 11:33:38;;;;;;;;;;;13.80;85.10;;;;;;5047189;28;20251;-63
2022/02/13 11:36:04;;;;;;;;;;;14.10;83.60;;;;;;5023784;28;19908;-65
2022/02/13 11:38:39;;;;;;;;;;;14.60;83.10;;;;;;5045671;28;19976;-67
2022/02/13 11:41:05;;;;;;;;;;;14.40;82.30;;;;;;5041739;28;19996;-63
2022/02/13 11:43:46;;;;;;;;;;;14.60;81.50;;;;;;5052543;28;20327;-63
2022/02/13 11:46:12;;;;;;;;;;;15.00;80.60;;;;;;5044349;28;19959;-64
2022/02/13 11:48:40;;;;;;;;;;;14.70;80.10;;;;;;5026583;28;19970;-64
2022/02/13 11:51:07;;;;;;;;;;;15.10;80.50;;;;;;5028064;28;19908;-63
2022/02/13 11:53:34;;;;;;;;;;;15.50;78.80;;;;;;5052664;28;20358;-66
2022/02/13 11:56:30;;;;;;;;;;;16.00;77.90;;;;;;5018314;28;19909;-64
2022/02/13 11:58:56;;;;;;;;;;;15.50;76.60;;;;;;5011461;28;20011;-63
2022/02/13 12:01:36;;;;;;;;;;;15.50;77.90;;;;;;5024337;28;19917;-65
2022/02/13 12:04:06;;;;;;;;;;;15.10;77.50;;;;;;5021264;28;19912;-64
2022/02/13 12:06:32;;;;;;;;;;;14.80;79.40;;;;;;5031535;28;19916;-64
2022/02/13 12:08:59;;;;;;;;;;;15.00;79.50;;;;;;5054262;28;20003;-67
2022/02/13 12:11:28;;;;;;;;;;;15.20;79.20;;;;;;5051578;28;20261;-68
2022/02/13 12:13:54;;;;;;;;;;;15.40;78.60;;;;;;5032747;28;19951;-66
2022/02/13 12:16:23;;;;;;;;;;;14.50;79.40;;;;;;5027777;28;19913;-64
2022/02/13 12:18:52;;;;;;;;;;;14.60;80.00;;;;;;5046152;28;19932;-64
2022/02/13 12:21:24;;;;;;;;;;;15.20;79.60;;;;;;5052661;28;19905;-63
2022/02/13 12:23:58;;;;;;;;;;;14.90;79.20;;;;;;5053213;28;19913;-65
2022/02/13 12:26:24;;;;;;;;;;;14.90;79.80;;;;;;5032371;28;19905;-65
2022/02/13 12:28:49;;;;;;;;;;;15.20;79.10;;;;;;5020641;28;19916;-65
2022/02/13 12:31:21;;;;;;;;;;;15.10;79.00;;;;;;5037360;28;19995;-65
2022/02/13 12:33:51;;;;;;;;;;;15.10;78.60;;;;;;5020365;28;20334;-63
2022/02/13 12:36:23;;;;;;;;;;;15.20;79.20;;;;;;5023916;28;19966;-66
2022/02/13 12:38:52;;;;;;;;;;;15.10;79.20;;;;;;5041089;28;19957;-64
2022/02/13 12:41:18;;;;;;;;;;;15.30;78.90;;;;;;5036787;28;19913;-65
2022/02/13 12:43:43;;;;;;;;;;;15.20;78.90;;;;;;5035059;28;19905;-64
2022/02/13 12:46:09;;;;;;;;;;;15.50;78.20;;;;;;5032143;28;19913;-64
2022/02/13 12:48:37;;;;;;;;;;;15.50;78.60;;;;;;5015938;28;19928;-63
2022/02/13 12:51:03;;;;;;;;;;;15.60;78.60;;;;;;5033520;28;20445;-66
2022/02/13 12:53:30;;;;;;;;;;;16.20;77.10;;;;;;5033833;28;19956;-71
2022/02/13 12:55:58;;;;;;;;;;;16.40;76.00;;;;;;5016729;28;19912;-67
2022/02/13 12:58:23;;;;;;;;;;;16.40;76.10;;;;;;5033848;28;20009;-67
2022/02/13 13:00:50;;;;;;;;;;;16.50;75.40;;;;;;5035903;28;19905;-63
2022/02/13 13:03:20;;;;;;;;;;;16.00;76.50;;;;;;5034457;28;19909;-64
2022/02/13 13:05:46;;;;;;;;;;;15.70;77.80;;;;;;5035251;28;20288;-63
2022/02/13 13:08:22;;;;;;;;;;;15.60;78.00;;;;;;5052787;28;19905;-65
2022/02/13 13:10:57;;;;;;;;;;;16.10;77.20;;;;;;5054575;28;20250;-63
2022/02/13 13:13:26;;;;;;;;;;;16.30;76.80;;;;;;5052077;28;19924;-65
2022/02/13 13:16:14;;;;;;;;;;;16.60;76.10;;;;;;5035443;28;19913;-65
2022/02/13 13:18:39;;;;;;;;;;;17.00;75.10;;;;;;5035634;28;19904;-67
2022/02/13 13:21:15;;;;;;;;;;;16.40;75.80;;;;;;5034805;28;20038;-64
2022/02/13 13:24:02;;;;;;;;;;;16.40;76.40;;;;;;5052969;28;19904;-63
2022/02/13 13:26:28;;;;;;;;;;;17.00;76.90;;;;;;5034348;28;20421;-64
2022/02/13 13:28:54;;;;;;;;;;;16.00;76.40;;;;;;5034372;28;19905;-67
2022/02/13 13:31:20;;;;;;;;;;;16.10;76.90;;;;;;5033515;28;20373;-64
2022/02/13 13:33:46;;;;;;;;;;;15.80;77.00;;;;;;5052287;28;20054;-66
2022/02/13 13:36:14;;;;;;;;;;;16.00;77.20;;;;;;5051582;28;19916;-64
2022/02/13 13:38:39;;;;;;;;;;;16.50;77.20;;;;;;5033991;28;19951;-64
2022/02/13 13:41:06;;;;;;;;;;;16.70;76.20;;;;;;5052518;28;19909;-65
2022/02/13 13:43:32;;;;;;;;;;;16.50;75.30;;;;;;5033518;28;19909;-64
2022/02/13 13:45:57;;;;;;;;;;;16.60;75.70;;;;;;5052784;28;19919;-62
2022/02/13 13:48:23;;;;;;;;;;;16.90;75.10;;;;;;5051608;28;19904;-63
2022/02/13 13:50:49;;;;;;;;;;;17.00;75.10;;;;;;5034425;28;19928;-64
2022/02/13 13:53:16;;;;;;;;;;;16.90;74.80;;;;;;5051998;28;19905;-65
2022/02/13 13:55:43;;;;;;;;;;;16.80;74.60;;;;;;5034149;28;20370;-63
2022/02/13 13:58:09;;;;;;;;;;;16.90;75.20;;;;;;5052369;28;19909;-64
2022/02/13 14:00:34;;;;;;;;;;;16.80;74.40;;;;;;5033433;28;19940;-65
2022/02/13 14:03:01;;;;;;;;;;;17.10;74.90;;;;;;5036878;28;19912;-64
2022/02/13 14:05:27;;;;;;;;;;;16.90;74.70;;;;;;5055345;28;20269;-64
2022/02/13 14:07:52;;;;;;;;;;;16.80;74.10;;;;;;5038347;28;19915;-66
2022/02/13 14:10:18;;;;;;;;;;;16.60;75.20;;;;;;5056583;28;20257;-65
2022/02/13 14:12:44;;;;;;;;;;;16.60;74.60;;;;;;5055941;28;19917;-65
2022/02/13 14:15:10;;;;;;;;;;;16.20;74.50;;;;;;5037688;28;19919;-64
2022/02/13 14:17:36;;;;;;;;;;;15.40;76.20;;;;;;5054570;28;19912;-63
2022/02/13 14:20:02;;;;;;;;;;;15.50;77.00;;;;;;5055598;28;19915;-65
2022/02/13 14:22:28;;;;;;;;;;;15.30;77.20;;;;;;5036387;28;19944;-70